Map

Track Data

SID SEASON NUMBER BASIN SUBBASIN NAME ISO_TIME NATURE LAT LON WMO_WIND WMO_PRES WMO_AGENCY TRACK_TYPE DIST2LAND LANDFALL IFLAG USA_AGENCY USA_ATCF_ID USA_LAT USA_LON USA_RECORD USA_STATUS USA_WIND USA_PRES USA_SSHS USA_R34_NE USA_R34_SE USA_R34_SW USA_R34_NW USA_R50_NE USA_R50_SE USA_R50_SW USA_R50_NW USA_R64_NE USA_R64_SE USA_R64_SW USA_R64_NW USA_POCI USA_ROCI USA_RMW USA_EYE TOKYO_LAT TOKYO_LON TOKYO_GRADE TOKYO_WIND TOKYO_PRES TOKYO_R50_DIR TOKYO_R50_LONG TOKYO_R50_SHORT TOKYO_R30_DIR TOKYO_R30_LONG TOKYO_R30_SHORT TOKYO_LAND CMA_LAT CMA_LON CMA_CAT CMA_WIND CMA_PRES HKO_LAT HKO_LON HKO_CAT HKO_WIND HKO_PRES NEWDELHI_LAT NEWDELHI_LON NEWDELHI_GRADE NEWDELHI_WIND NEWDELHI_PRES NEWDELHI_CI NEWDELHI_DP NEWDELHI_POCI REUNION_LAT REUNION_LON REUNION_TYPE REUNION_WIND REUNION_PRES REUNION_TNUM REUNION_CI REUNION_RMW REUNION_R34_NE REUNION_R34_SE REUNION_R34_SW REUNION_R34_NW REUNION_R50_NE REUNION_R50_SE REUNION_R50_SW REUNION_R50_NW REUNION_R64_NE REUNION_R64_SE REUNION_R64_SW REUNION_R64_NW BOM_LAT BOM_LON BOM_TYPE BOM_WIND BOM_PRES BOM_TNUM BOM_CI BOM_RMW BOM_R34_NE BOM_R34_SE BOM_R34_SW BOM_R34_NW BOM_R50_NE BOM_R50_SE BOM_R50_SW BOM_R50_NW BOM_R64_NE BOM_R64_SE BOM_R64_SW BOM_R64_NW BOM_ROCI BOM_POCI BOM_EYE BOM_POS_METHOD BOM_PRES_METHOD NADI_LAT NADI_LON NADI_CAT NADI_WIND NADI_PRES WELLINGTON_LAT WELLINGTON_LON WELLINGTON_WIND WELLINGTON_PRES DS824_LAT DS824_LON DS824_STAGE DS824_WIND DS824_PRES TD9636_LAT TD9636_LON TD9636_STAGE TD9636_WIND TD9636_PRES TD9635_LAT TD9635_LON TD9635_WIND TD9635_PRES TD9635_ROCI NEUMANN_LAT NEUMANN_LON NEUMANN_CLASS NEUMANN_WIND NEUMANN_PRES MLC_LAT MLC_LON MLC_CLASS MLC_WIND MLC_PRES USA_GUST BOM_GUST BOM_GUST_PER REUNION_GUST REUNION_GUST_PER USA_SEAHGT USA_SEARAD_NE USA_SEARAD_SE USA_SEARAD_SW USA_SEARAD_NW STORM_SPEED STORM_DIR
1892177N12121 1892 22 WP MM NOT_NAMED 1892-06-24 16:00:00 NR 12.1000 121.100 main 11 11 __________O___ -1 12.1000 121.100 7 3 296
1892177N12121 1892 22 WP MM NOT_NAMED 1892-06-24 18:00:00 NR 12.1424 121.014 main 15 10 __________P___ -1 12.1424 121.014 7 3 297
1892177N12121 1892 22 WP MM NOT_NAMED 1892-06-24 21:00:00 NR 12.2089 120.880 main 21 21 __________P___ -1 12.2089 120.880 7 3 297
1892177N12121 1892 22 WP MM NOT_NAMED 1892-06-25 00:00:00 NR 12.2827 120.732 main 34 34 __________P___ -1 12.2827 120.732 7 3 297
1892177N12121 1892 22 WP MM NOT_NAMED 1892-06-25 03:00:00 NR 12.3682 120.563 main 39 39 __________P___ -1 12.3682 120.563 7 4 297
1892177N12121 1892 22 WP MM NOT_NAMED 1892-06-25 04:00:00 NR 12.4000 120.500 main 46 46 __________O___ -1 12.4000 120.500 7 4 297
1892177N12121 1892 22 WP MM NOT_NAMED 1892-06-25 06:00:00 NR 12.4693 120.365 main 48 48 __________P___ -1 12.4693 120.365 7 5 298
1892177N12121 1892 22 WP MM NOT_NAMED 1892-06-25 09:00:00 NR 12.5858 120.142 main 76 76 __________P___ -1 12.5858 120.142 7 5 299
1892177N12121 1892 22 WP MM NOT_NAMED 1892-06-25 12:00:00 NR 12.7146 119.908 main 85 85 __________P___ -1 12.7146 119.908 7 5 300
1892177N12121 1892 22 WP MM NOT_NAMED 1892-06-25 15:00:00 NR 12.8525 119.675 main 85 85 __________P___ -1 12.8525 119.675 7 5 302
1892177N12121 1892 22 WP MM NOT_NAMED 1892-06-25 16:00:00 NR 12.9000 119.600 main 94 94 __________O___ -1 12.9000 119.600 7 5 305
1892177N12121 1892 22 WP MM NOT_NAMED 1892-06-25 18:00:00 NR 12.9863 119.477 main 97 97 __________P___ -1 12.9863 119.477 7 4 307
1892177N12121 1892 22 WP MM NOT_NAMED 1892-06-25 21:00:00 NR 13.1219 119.298 main 113 110 __________P___ -1 13.1219 119.298 7 5 308
1892177N12121 1892 22 WP MM NOT_NAMED 1892-06-26 00:00:00 NR 13.2705 119.108 main 130 130 __________P___ -1 13.2705 119.108 7 5 308
1892177N12121 1892 22 WP MM NOT_NAMED 1892-06-26 03:00:00 NR 13.4386 118.885 main 151 151 __________P___ -1 13.4386 118.885 7 6 307
1892177N12121 1892 22 WP MM NOT_NAMED 1892-06-26 04:00:00 NR 13.5000 118.800 main 162 162 __________O___ -1 13.5000 118.800 3 7 306
1892177N12121 1892 22 WP MM NOT_NAMED 1892-06-26 06:00:00 NR 13.6355 118.609 main 185 185 __________P___ -1 13.6355 118.609 3 7 306
1892177N12121 1892 22 WP MM NOT_NAMED 1892-06-26 09:00:00 NR 13.8577 118.284 main 218 218 __________P___ -1 13.8577 118.284 3 8 304
1892177N12121 1892 22 WP MM NOT_NAMED 1892-06-26 12:00:00 NR 14.0915 117.923 main 249 249 __________P___ -1 14.0915 117.923 3 9 303
1892177N12121 1892 22 WP MM NOT_NAMED 1892-06-26 15:00:00 NR 14.3246 117.534 main 285 281 __________P___ -1 14.3246 117.534 3 9 301
1892177N12121 1892 22 WP MM NOT_NAMED 1892-06-26 16:00:00 NR 14.4000 117.400 main 291 291 __________O___ -1 14.4000 117.400 4 9 300
1892177N12121 1892 22 WP MM NOT_NAMED 1892-06-26 18:00:00 NR 14.5495 117.134 main 317 313 __________P___ -1 14.5495 117.134 4 9 299
1892177N12121 1892 22 WP MM NOT_NAMED 1892-06-26 21:00:00 NR 14.7677 116.716 main 348 348 __________P___ -1 14.7677 116.716 4 9 297
1892177N12121 1892 22 WP MM NOT_NAMED 1892-06-27 00:00:00 NR 14.9703 116.283 main 381 381 __________P___ -1 14.9703 116.283 4 9 294
1892177N12121 1892 22 WP MM NOT_NAMED 1892-06-27 03:00:00 NR 15.1479 115.845 main 429 427 __________P___ -1 15.1479 115.845 4 9 292
1892177N12121 1892 22 WP MM NOT_NAMED 1892-06-27 04:00:00 NR 15.2000 115.700 main 437 437 __________O___ -1 15.2000 115.700 7 9 289
1892177N12121 1892 22 WP MM NOT_NAMED 1892-06-27 06:00:00 NR 15.2919 115.419 main 467 467 __________P___ -1 15.2919 115.419 7 9 287
1892177N12121 1892 22 WP MM NOT_NAMED 1892-06-27 09:00:00 NR 15.4047 114.998 main 507 507 __________P___ -1 15.4047 114.998 7 8 284
1892177N12121 1892 22 WP MM NOT_NAMED 1892-06-27 12:00:00 NR 15.4959 114.574 main 548 523 __________P___ -1 15.4959 114.574 7 8 282
1892177N12121 1892 22 WP MM NOT_NAMED 1892-06-27 15:00:00 NR 15.5748 114.145 main 523 516 __________P___ -1 15.5748 114.145 7 8 281
1892177N12121 1892 22 WP MM NOT_NAMED 1892-06-27 16:00:00 NR 15.6000 114.000 main 516 485 __________O___ -1 15.6000 114.000 7 9 280
1892177N12121 1892 22 WP MM NOT_NAMED 1892-06-27 18:00:00 NR 15.6503 113.707 main 485 455 __________P___ -1 15.6503 113.707 7 9 280
1892177N12121 1892 22 WP MM NOT_NAMED 1892-06-27 21:00:00 NR 15.7257 113.261 main 455 412 __________P___ -1 15.7257 113.261 7 9 280
1892177N12121 1892 22 WP MM NOT_NAMED 1892-06-28 00:00:00 NR 15.8008 112.808 main 412 378 __________P___ -1 15.8008 112.808 7 9 280
1892177N12121 1892 22 WP MM NOT_NAMED 1892-06-28 03:00:00 NR 15.8753 112.352 main 378 358 __________P___ -1 15.8753 112.352 7 9 280
1892177N12121 1892 22 WP MM NOT_NAMED 1892-06-28 04:00:00 NR 15.9000 112.200 main 358 __________O___ -1 15.9000 112.200 7 9 280

Digital Typhoon Data and Search

About IBTrACS Database

This database is a web-friendly format of International Best Track Archive for Climate Stewardship (IBTrACS), a global best track data archive curated by NOAA dating back to 1842.

Updated: 2021-10-21